createdAt,value
2018-12-01T00:04:08.680Z,38.00
2018-12-01T00:09:12.592Z,53.17
2018-12-01T00:14:16.872Z,56.73
2018-12-01T00:19:21.108Z,38.07
2018-12-01T00:24:26.191Z,33.20
2018-12-01T00:29:35.961Z,51.77
2018-12-01T00:34:40.697Z,44.17
2018-12-01T00:39:51.796Z,42.70
2018-12-01T00:44:56.655Z,46.50
2018-12-01T00:50:00.731Z,39.20
2018-12-01T00:55:04.899Z,45.37
2018-12-01T01:00:15.887Z,45.77
2018-12-01T01:05:22.196Z,40.40
2018-12-01T01:15:47.251Z,47.93
2018-12-01T01:20:57.612Z,46.20
2018-12-01T01:26:02.740Z,37.17
2018-12-01T01:31:06.349Z,41.73
2018-12-01T01:36:10.432Z,55.33
2018-12-01T01:41:14.672Z,44.27
2018-12-01T01:46:20.117Z,66.43
2018-12-01T01:51:25.640Z,59.60
2018-12-01T01:56:30.189Z,70.80
2018-12-01T02:01:33.973Z,66.83
2018-12-01T02:06:37.697Z,76.53
2018-12-01T02:11:42.949Z,84.23
2018-12-01T02:16:46.621Z,76.30
2018-12-01T02:21:51.080Z,34.40
2018-12-01T02:26:54.837Z,45.43
2018-12-01T02:31:58.614Z,57.73
2018-12-01T02:37:02.736Z,86.07
2018-12-01T02:42:08.538Z,35.70
2018-12-01T02:47:12.877Z,44.93
2018-12-01T02:57:38.294Z,50.57
2018-12-01T03:02:42.122Z,37.37
2018-12-01T03:07:48.205Z,59.00
2018-12-01T03:13:01.955Z,57.77
2018-12-01T03:18:07.939Z,73.80
2018-12-01T03:23:12.468Z,75.00
2018-12-01T03:28:16.911Z,82.23
2018-12-01T03:33:21.345Z,70.77
2018-12-01T03:38:30.188Z,85.57
2018-12-01T03:43:34.801Z,64.37
2018-12-01T03:48:50.928Z,70.13
2018-12-01T03:54:12.266Z,54.07
2018-12-01T03:59:24.902Z,43.73
2018-12-01T04:04:28.987Z,48.17
2018-12-01T04:09:40.938Z,48.63
2018-12-01T04:14:44.416Z,38.93
2018-12-01T04:19:48.412Z,50.87
2018-12-01T04:24:52.315Z,46.37
2018-12-01T04:30:05.522Z,48.83
2018-12-01T04:35:15.936Z,44.60
2018-12-01T04:40:24.056Z,75.57
2018-12-01T04:45:38.855Z,54.03
2018-12-01T04:50:46.716Z,61.80
2018-12-01T04:55:55.452Z,69.13
2018-12-01T05:00:59.669Z,76.10
2018-12-01T05:06:03.669Z,71.67
2018-12-01T05:11:10.070Z,78.90
2018-12-01T05:16:14.801Z,53.80
2018-12-01T05:21:18.935Z,89.77
2018-12-01T05:26:33.116Z,76.03
2018-12-01T05:31:37.033Z,74.53
2018-12-01T05:36:40.934Z,71.47
2018-12-01T05:41:45.175Z,89.87
2018-12-01T05:46:54.518Z,87.80
2018-12-01T05:51:58.461Z,50.93
2018-12-01T05:57:02.220Z,63.00
2018-12-01T06:02:07.739Z,57.57
2018-12-01T06:07:13.372Z,59.13
2018-12-01T06:12:23.113Z,72.50
2018-12-01T06:17:33.982Z,74.93
2018-12-01T06:22:38.697Z,84.17
2018-12-01T06:27:44.144Z,78.87
2018-12-01T06:33:05.184Z,65.33
2018-12-01T06:38:09.508Z,63.17
2018-12-01T06:43:15.125Z,59.37
2018-12-01T06:48:18.783Z,44.83
2018-12-01T06:53:24.961Z,71.73
2018-12-01T06:58:28.785Z,55.57
2018-12-01T07:03:33.691Z,63.53
2018-12-01T07:08:43.290Z,66.57
2018-12-01T07:13:52.145Z,67.23
2018-12-01T07:19:22.080Z,94.73
2018-12-01T07:24:28.006Z,73.80
2018-12-01T07:29:34.283Z,57.90
2018-12-01T07:39:49.107Z,73.23
2018-12-01T07:44:52.854Z,101.90
2018-12-01T07:49:56.646Z,81.77
2018-12-01T07:55:06.873Z,101.40
2018-12-01T08:00:13.189Z,59.53
2018-12-01T08:05:16.955Z,93.27
2018-12-01T08:10:21.037Z,76.13
2018-12-01T08:15:25.358Z,74.73
2018-12-01T08:20:28.881Z,76.37
2018-12-01T08:25:32.396Z,95.97
2018-12-01T08:30:36.485Z,54.07
2018-12-01T08:35:39.995Z,90.97
2018-12-01T08:40:43.552Z,65.87
2018-12-01T08:45:47.329Z,58.93
2018-12-01T08:50:55.884Z,64.13
2018-12-01T08:55:59.664Z,70.83
2018-12-01T09:01:03.610Z,89.50
2018-12-01T09:06:07.753Z,75.67
2018-12-01T09:11:11.266Z,101.70
2018-12-01T09:16:14.742Z,95.77
2018-12-01T09:21:19.471Z,53.07
2018-12-01T09:26:23.303Z,70.80
2018-12-01T09:31:27.136Z,38.73
2018-12-01T09:36:30.685Z,98.80
2018-12-01T09:41:34.265Z,62.73
2018-12-01T09:46:38.714Z,76.77
2018-12-01T09:51:42.576Z,51.57
2018-12-01T09:56:46.092Z,73.40
2018-12-01T10:01:49.668Z,60.07
2018-12-01T10:06:59.900Z,54.57
2018-12-01T10:12:03.773Z,66.70
2018-12-01T10:17:10.684Z,45.63
2018-12-01T10:22:19.871Z,58.43
2018-12-01T10:27:24.474Z,61.37
2018-12-01T10:32:38.459Z,49.00
2018-12-01T10:37:44.661Z,89.87
2018-12-01T10:42:48.545Z,78.20
2018-12-01T10:47:52.135Z,90.17
2018-12-01T10:52:56.292Z,85.07
2018-12-01T10:58:05.061Z,74.07
2018-12-01T11:03:16.820Z,93.87
2018-12-01T11:08:20.389Z,68.77
2018-12-01T11:13:24.250Z,85.63
2018-12-01T11:18:28.239Z,100.73
2018-12-01T11:23:32.152Z,81.00
2018-12-01T11:28:35.726Z,68.00
2018-12-01T11:33:39.442Z,79.53
2018-12-01T11:38:42.954Z,88.23
2018-12-01T11:43:46.713Z,53.20
2018-12-01T11:48:52.262Z,73.17
2018-12-01T11:53:56.652Z,71.57
2018-12-01T11:59:00.232Z,82.90
2018-12-01T12:04:04.333Z,83.93
2018-12-01T12:09:09.972Z,104.17
2018-12-01T12:14:13.718Z,84.33
2018-12-01T12:19:17.346Z,74.13
2018-12-01T12:24:20.879Z,88.57
2018-12-01T12:29:27.296Z,75.63
2018-12-01T12:34:30.860Z,74.80
2018-12-01T12:39:34.396Z,78.90
2018-12-01T12:44:38.055Z,93.10
2018-12-01T12:49:45.405Z,64.80
2018-12-01T12:54:52.154Z,78.97
2018-12-01T12:59:56.563Z,80.77
2018-12-01T13:05:01.405Z,92.47
2018-12-01T13:10:08.174Z,91.63
2018-12-01T13:15:12.913Z,77.20
2018-12-01T13:20:24.439Z,82.43
2018-12-01T13:25:28.698Z,85.37
2018-12-01T13:30:36.816Z,82.80
2018-12-01T13:35:41.477Z,65.40
2018-12-01T13:40:45.076Z,45.53
2018-12-01T13:45:49.047Z,70.33
2018-12-01T13:50:52.689Z,62.33
2018-12-01T13:55:57.775Z,47.47
2018-12-01T14:01:07.645Z,42.87
2018-12-01T14:06:11.724Z,40.23
2018-12-01T14:11:26.814Z,66.30
2018-12-01T14:16:30.986Z,45.60
2018-12-01T14:21:36.232Z,54.70
2018-12-01T14:26:41.915Z,85.83
2018-12-01T14:36:57.152Z,70.00
2018-12-01T14:42:02.846Z,56.70
2018-12-01T14:47:06.832Z,77.43
2018-12-01T14:52:11.575Z,64.07
2018-12-01T14:57:22.974Z,58.13
2018-12-01T15:02:26.603Z,75.93
2018-12-01T15:07:31.388Z,56.93
2018-12-01T15:12:35.395Z,44.00
2018-12-01T15:17:39.133Z,52.20
2018-12-01T15:22:43.284Z,29.47
2018-12-01T15:27:55.237Z,47.17
2018-12-01T15:33:17.302Z,52.73
2018-12-01T15:38:23.059Z,38.43
2018-12-01T15:43:27.585Z,55.03
2018-12-01T15:48:31.475Z,48.97
2018-12-01T15:53:35.248Z,39.43
2018-12-01T15:58:39.003Z,21.70
2018-12-01T16:03:42.751Z,38.83
2018-12-01T16:08:46.414Z,38.43
2018-12-01T16:13:50.828Z,36.10
2018-12-01T16:18:56.797Z,45.10
2018-12-01T16:24:01.247Z,39.23
2018-12-01T16:29:05.342Z,26.70
2018-12-01T16:34:09.000Z,47.40
2018-12-01T16:39:14.206Z,34.20
2018-12-01T16:44:19.120Z,37.00
2018-12-01T16:49:31.018Z,49.17
2018-12-01T16:54:38.029Z,33.27
2018-12-01T16:59:42.744Z,39.20
2018-12-01T17:04:46.758Z,35.03
2018-12-01T17:09:53.516Z,35.03
2018-12-01T17:14:57.982Z,35.40
2018-12-01T17:20:02.356Z,23.30
2018-12-01T17:25:10.158Z,21.53
2018-12-01T17:30:19.589Z,40.37
2018-12-01T17:35:26.945Z,34.17
2018-12-01T17:41:35.399Z,34.80
2018-12-01T17:46:44.538Z,45.13
2018-12-01T17:51:49.669Z,30.57
2018-12-01T17:56:57.403Z,40.30
2018-12-01T18:02:04.146Z,21.50
2018-12-01T18:07:08.785Z,25.07
2018-12-01T18:12:13.374Z,40.97
2018-12-01T18:17:17.943Z,19.20
2018-12-01T18:22:28.614Z,33.83
2018-12-01T18:27:33.052Z,25.20
2018-12-01T18:32:38.137Z,42.97
2018-12-01T18:37:42.885Z,43.00
2018-12-01T18:42:47.716Z,42.13
2018-12-01T18:47:57.978Z,42.27
2018-12-01T18:53:04.142Z,54.13
2018-12-01T18:58:09.869Z,27.70
2018-12-01T19:03:14.973Z,37.40
2018-12-01T19:08:19.427Z,75.40
2018-12-01T19:13:23.949Z,35.97
2018-12-01T19:18:29.469Z,36.70
2018-12-01T19:23:33.441Z,36.33
2018-12-01T19:28:37.294Z,60.23
2018-12-01T19:33:47.414Z,37.77
2018-12-01T19:38:52.640Z,36.43
2018-12-01T19:44:00.257Z,63.80
2018-12-01T19:49:06.149Z,47.70
2018-12-01T19:54:10.746Z,34.80
2018-12-01T19:59:15.829Z,32.93
2018-12-01T20:04:20.376Z,35.93
2018-12-01T20:09:24.714Z,57.83
2018-12-01T20:14:28.922Z,47.80
2018-12-01T20:19:32.894Z,58.00
2018-12-01T20:24:37.051Z,25.73
2018-12-01T20:29:41.119Z,23.93
2018-12-01T20:34:50.100Z,28.37
2018-12-01T20:39:54.163Z,32.80
2018-12-01T20:44:58.921Z,40.10
2018-12-01T20:50:04.517Z,41.23
2018-12-01T20:55:14.430Z,24.07
2018-12-01T21:00:24.693Z,58.63
2018-12-01T21:05:30.008Z,41.60
2018-12-01T21:10:35.610Z,26.33
2018-12-01T21:15:39.965Z,27.57
2018-12-01T21:20:45.023Z,27.07
2018-12-01T21:25:48.770Z,42.73
2018-12-01T21:30:52.610Z,36.17
2018-12-01T21:35:56.313Z,46.97
2018-12-01T21:41:00.115Z,29.83
2018-12-01T21:46:03.944Z,39.83
2018-12-01T21:51:07.732Z,28.83
2018-12-01T21:56:11.729Z,31.33
2018-12-01T22:01:16.309Z,31.73
2018-12-01T22:06:21.296Z,48.93
2018-12-01T22:11:25.067Z,42.17
2018-12-01T22:16:28.785Z,8.60
2018-12-01T22:21:32.586Z,27.30
2018-12-01T22:26:36.612Z,23.97
2018-12-01T22:31:44.391Z,35.10
2018-12-01T22:36:48.654Z,33.00
2018-12-01T22:41:54.061Z,16.30
2018-12-01T22:46:57.676Z,23.83
2018-12-01T22:52:01.258Z,33.17
2018-12-01T22:57:05.462Z,17.30
2018-12-01T23:02:09.228Z,20.67
2018-12-01T23:07:13.792Z,22.40
2018-12-01T23:12:17.592Z,17.23
2018-12-01T23:17:21.129Z,19.50
2018-12-01T23:22:25.469Z,23.27
2018-12-01T23:27:32.924Z,16.13
2018-12-01T23:32:37.376Z,13.80
2018-12-01T23:37:41.009Z,10.20
2018-12-01T23:42:44.555Z,11.20
2018-12-01T23:47:48.712Z,9.33
2018-12-01T23:53:02.081Z,17.30
2018-12-01T23:58:05.785Z,27.60
